Lowell, ID

12:17 AM PDT on October 22, 2014 (GMT -0700)
Kamiah Airport | Change Station
CLOSE
Current Station
Personal Weather Station
Location: Kamiah, ID
Elevation: 1194 ft
Nearby Weather Stations

Elev 1194 ft 46.22 °N, 116.01 °W | Updated 1 second ago

Clear
Clear
45.7 °F
Feels Like 46 °F
N
0.0
Wind Variable Wind from WSW
Gusts 0.0 mph

Today
High -- | Low -- °F
--% Chance of Precip.
Yesterday
High -- | Low -- °F
Precip. -- in
7:10 AM 5:44 PM
Waning Crescent, 3% visible
Pressure 30.07 in
Visibility 7.0 miles
Clouds Clear
Windchill 46 °F
Dew Point 43 °F
Humidity 89%
Rainfall 0.00 in
Snow Depth Not available.
UV 0 out of 12
Pollen 1.60 out of 12
Air Quality Not available.
Flu Activity Sporadic
METAR KGIC 220655Z AUTO 00000KT 7SM CLR 03/01 A3007 RMK AO1 T00260006 403111008

More Conditions Fewer Conditions

Pressure 30.07 in
Visibility 7.0 miles
Clouds Clear
Windchill 46 °F
Dew Point 43 °F
Humidity 89%
Rainfall 0.00 in
Snow Depth Not available.
UV 0 out of 12
Pollen 1.60 out of 12
Air Quality Not available.
Flu Activity Sporadic
METAR KGIC 220655Z AUTO 00000KT 7SM CLR 03/01 A3007 RMK AO1 T00260006 403111008

More Conditions Fewer Conditions

10-Day Weather Forecast

Almanac

Astronomy

Oct. 22, 2014 Rise Set
Actual Time 7:10 AM PDT 5:44 PM PDT
Civil Twilight 6:39 AM PDT 6:15 PM PDT
Nautical Twilight 6:04 AM PDT 6:50 PM PDT
Astronomical Twilight 5:30 AM PDT 7:24 PM PDT
Moon 5:52 AM PDT 5:16 PM PDT
Length of Visible Light 11h 35m
Length of Day
10h 34m
Tomorrow will be 3m 4s shorter.
Waning Crescent, 3% of the Moon is Illuminated
Today
Waning Crescent
Oct 23
New
Oct 30
First Quarter
Nov 6
Full
Nov 14
Last Quarter

Today's Extremes

State Highs State Lows

Community

WunderPhotos

Upload Photos

1,763,890 photos uploaded!

Nearby

Snow Depth

Station Depth Elevation
Hemlock Butte 1 in 5810 ft
Shanghi Summit 0 in 4570 ft
Crater Meadows 0 in 5960 ft
Mountain Meadows 0 in 6360 ft
Elk Butte 0 in 5690 ft

Earthquake Activity

City Distance Mag. Time & Date
No recent earthquake activity has been reported nearby.
Minimum magnitude displayed is 2.5.

Coastal Water Temperatures

Place Temperature
No Stations Reporting

Nearby Weather Stations